sensor_id;sensor_type;location;lat;lon;timestamp;P1;durP1;ratioP1;P2;durP2;ratioP2
2598;SDS011;1309;48.810;8.954;2023-05-10T00:00:15;1.40;;;0.40;;
2598;SDS011;1309;48.810;8.954;2023-05-10T00:02:44;2.03;;;0.60;;
2598;SDS011;1309;48.810;8.954;2023-05-10T00:05:12;1.50;;;0.50;;
2598;SDS011;1309;48.810;8.954;2023-05-10T00:07:43;1.40;;;0.30;;
2598;SDS011;1309;48.810;8.954;2023-05-10T00:10:11;1.67;;;0.47;;
2598;SDS011;1309;48.810;8.954;2023-05-10T00:12:39;1.60;;;0.43;;
2598;SDS011;1309;48.810;8.954;2023-05-10T00:15:21;1.50;;;0.40;;
2598;SDS011;1309;48.810;8.954;2023-05-10T00:17:57;1.50;;;0.40;;
2598;SDS011;1309;48.810;8.954;2023-05-10T00:20:37;1.53;;;0.30;;
2598;SDS011;1309;48.810;8.954;2023-05-10T00:23:05;2.53;;;0.43;;
2598;SDS011;1309;48.810;8.954;2023-05-10T00:25:33;1.60;;;0.50;;
2598;SDS011;1309;48.810;8.954;2023-05-10T00:28:17;1.60;;;0.50;;
2598;SDS011;1309;48.810;8.954;2023-05-10T00:30:46;1.60;;;0.50;;
2598;SDS011;1309;48.810;8.954;2023-05-10T00:33:17;1.50;;;0.43;;
2598;SDS011;1309;48.810;8.954;2023-05-10T00:35:56;2.40;;;0.70;;
2598;SDS011;1309;48.810;8.954;2023-05-10T00:38:24;1.50;;;0.50;;
2598;SDS011;1309;48.810;8.954;2023-05-10T00:40:54;1.60;;;0.47;;
2598;SDS011;1309;48.810;8.954;2023-05-10T00:43:23;1.50;;;0.40;;
2598;SDS011;1309;48.810;8.954;2023-05-10T00:46:02;1.57;;;0.50;;
2598;SDS011;1309;48.810;8.954;2023-05-10T00:48:30;1.63;;;0.57;;
2598;SDS011;1309;48.810;8.954;2023-05-10T00:51:02;1.77;;;0.53;;
2598;SDS011;1309;48.810;8.954;2023-05-10T00:53:31;1.90;;;0.60;;
2598;SDS011;1309;48.810;8.954;2023-05-10T00:55:59;2.17;;;0.60;;
2598;SDS011;1309;48.810;8.954;2023-05-10T00:58:30;1.60;;;0.50;;
2598;SDS011;1309;48.810;8.954;2023-05-10T01:01:04;2.30;;;1.03;;
2598;SDS011;1309;48.810;8.954;2023-05-10T01:03:35;1.50;;;0.50;;
2598;SDS011;1309;48.810;8.954;2023-05-10T01:06:04;1.80;;;0.67;;
2598;SDS011;1309;48.810;8.954;2023-05-10T01:08:32;5.20;;;0.90;;
2598;SDS011;1309;48.810;8.954;2023-05-10T01:11:03;2.13;;;0.77;;
2598;SDS011;1309;48.810;8.954;2023-05-10T01:13:33;2.73;;;0.90;;
2598;SDS011;1309;48.810;8.954;2023-05-10T01:16:06;1.90;;;0.90;;
2598;SDS011;1309;48.810;8.954;2023-05-10T01:18:35;2.43;;;0.90;;
2598;SDS011;1309;48.810;8.954;2023-05-10T01:21:11;2.40;;;0.80;;
2598;SDS011;1309;48.810;8.954;2023-05-10T01:23:51;1.83;;;0.80;;
2598;SDS011;1309;48.810;8.954;2023-05-10T01:29:47;1.73;;;0.60;;
2598;SDS011;1309;48.810;8.954;2023-05-10T01:32:45;2.10;;;0.90;;
2598;SDS011;1309;48.810;8.954;2023-05-10T01:35:19;2.10;;;0.57;;
2598;SDS011;1309;48.810;8.954;2023-05-10T01:37:57;2.80;;;0.60;;
2598;SDS011;1309;48.810;8.954;2023-05-10T01:40:30;1.80;;;0.60;;
2598;SDS011;1309;48.810;8.954;2023-05-10T01:43:17;2.00;;;0.67;;
2598;SDS011;1309;48.810;8.954;2023-05-10T01:45:53;1.80;;;0.80;;
2598;SDS011;1309;48.810;8.954;2023-05-10T01:48:32;2.03;;;1.00;;
2598;SDS011;1309;48.810;8.954;2023-05-10T01:51:05;2.00;;;0.97;;
2598;SDS011;1309;48.810;8.954;2023-05-10T01:53:33;1.80;;;0.77;;
2598;SDS011;1309;48.810;8.954;2023-05-10T01:56:03;2.57;;;1.10;;
2598;SDS011;1309;48.810;8.954;2023-05-10T01:58:35;2.40;;;0.90;;
2598;SDS011;1309;48.810;8.954;2023-05-10T02:01:17;1.83;;;0.80;;
2598;SDS011;1309;48.810;8.954;2023-05-10T02:03:50;2.40;;;1.30;;
2598;SDS011;1309;48.810;8.954;2023-05-10T02:06:20;2.00;;;1.00;;
2598;SDS011;1309;48.810;8.954;2023-05-10T02:08:52;3.00;;;1.30;;
2598;SDS011;1309;48.810;8.954;2023-05-10T02:11:22;2.47;;;1.13;;
2598;SDS011;1309;48.810;8.954;2023-05-10T02:13:56;1.73;;;0.80;;
2598;SDS011;1309;48.810;8.954;2023-05-10T02:16:26;2.63;;;1.40;;
2598;SDS011;1309;48.810;8.954;2023-05-10T02:18:59;2.20;;;0.93;;
2598;SDS011;1309;48.810;8.954;2023-05-10T02:21:29;2.70;;;1.37;;
2598;SDS011;1309;48.810;8.954;2023-05-10T02:24:00;2.03;;;1.00;;
2598;SDS011;1309;48.810;8.954;2023-05-10T02:26:31;2.60;;;1.03;;
2598;SDS011;1309;48.810;8.954;2023-05-10T02:28:59;2.17;;;1.00;;
2598;SDS011;1309;48.810;8.954;2023-05-10T02:31:30;1.80;;;0.87;;
2598;SDS011;1309;48.810;8.954;2023-05-10T02:34:07;2.00;;;0.90;;
2598;SDS011;1309;48.810;8.954;2023-05-10T02:36:38;2.10;;;0.90;;
2598;SDS011;1309;48.810;8.954;2023-05-10T02:39:08;1.80;;;0.70;;
2598;SDS011;1309;48.810;8.954;2023-05-10T02:41:51;1.93;;;0.97;;
2598;SDS011;1309;48.810;8.954;2023-05-10T02:44:23;2.10;;;1.00;;
2598;SDS011;1309;48.810;8.954;2023-05-10T02:46:54;2.00;;;1.00;;
2598;SDS011;1309;48.810;8.954;2023-05-10T02:49:32;2.40;;;0.90;;
2598;SDS011;1309;48.810;8.954;2023-05-10T02:52:07;2.23;;;1.13;;
2598;SDS011;1309;48.810;8.954;2023-05-10T02:54:39;2.07;;;1.00;;
2598;SDS011;1309;48.810;8.954;2023-05-10T02:57:15;2.57;;;1.27;;
2598;SDS011;1309;48.810;8.954;2023-05-10T02:59:44;2.00;;;1.27;;
2598;SDS011;1309;48.810;8.954;2023-05-10T03:02:14;2.10;;;0.90;;
2598;SDS011;1309;48.810;8.954;2023-05-10T03:04:43;2.17;;;1.07;;
2598;SDS011;1309;48.810;8.954;2023-05-10T03:07:17;2.50;;;1.10;;
2598;SDS011;1309;48.810;8.954;2023-05-10T03:09:47;2.03;;;1.20;;
2598;SDS011;1309;48.810;8.954;2023-05-10T03:12:27;2.07;;;1.10;;
2598;SDS011;1309;48.810;8.954;2023-05-10T03:15:03;2.07;;;1.00;;
2598;SDS011;1309;48.810;8.954;2023-05-10T03:17:39;2.63;;;1.30;;
2598;SDS011;1309;48.810;8.954;2023-05-10T03:20:15;2.83;;;1.37;;
2598;SDS011;1309;48.810;8.954;2023-05-10T03:22:50;2.70;;;1.60;;
2598;SDS011;1309;48.810;8.954;2023-05-10T03:25:19;2.70;;;1.20;;
2598;SDS011;1309;48.810;8.954;2023-05-10T03:27:50;2.60;;;1.30;;
2598;SDS011;1309;48.810;8.954;2023-05-10T03:30:19;3.20;;;1.60;;
2598;SDS011;1309;48.810;8.954;2023-05-10T03:32:48;2.90;;;1.70;;
2598;SDS011;1309;48.810;8.954;2023-05-10T03:38:47;2.53;;;1.33;;
2598;SDS011;1309;48.810;8.954;2023-05-10T03:41:16;3.30;;;1.80;;
2598;SDS011;1309;48.810;8.954;2023-05-10T03:43:45;2.93;;;1.50;;
2598;SDS011;1309;48.810;8.954;2023-05-10T03:46:14;4.90;;;1.50;;
2598;SDS011;1309;48.810;8.954;2023-05-10T03:48:44;3.10;;;1.53;;
2598;SDS011;1309;48.810;8.954;2023-05-10T03:51:14;2.40;;;1.43;;
2598;SDS011;1309;48.810;8.954;2023-05-10T03:53:43;3.23;;;1.63;;
2598;SDS011;1309;48.810;8.954;2023-05-10T03:56:13;2.70;;;1.40;;
2598;SDS011;1309;48.810;8.954;2023-05-10T03:58:41;2.30;;;1.20;;
2598;SDS011;1309;48.810;8.954;2023-05-10T04:01:11;3.60;;;1.73;;
2598;SDS011;1309;48.810;8.954;2023-05-10T04:03:39;3.40;;;1.77;;
2598;SDS011;1309;48.810;8.954;2023-05-10T04:06:08;2.80;;;1.70;;
2598;SDS011;1309;48.810;8.954;2023-05-10T04:08:40;1.90;;;0.97;;
2598;SDS011;1309;48.810;8.954;2023-05-10T04:11:09;6.57;;;2.07;;
2598;SDS011;1309;48.810;8.954;2023-05-10T04:13:42;3.07;;;1.30;;
2598;SDS011;1309;48.810;8.954;2023-05-10T04:16:13;2.50;;;1.40;;
2598;SDS011;1309;48.810;8.954;2023-05-10T04:18:42;3.83;;;1.60;;
2598;SDS011;1309;48.810;8.954;2023-05-10T04:21:12;3.67;;;1.80;;
2598;SDS011;1309;48.810;8.954;2023-05-10T04:23:45;3.53;;;1.70;;
2598;SDS011;1309;48.810;8.954;2023-05-10T04:26:13;3.53;;;1.93;;
2598;SDS011;1309;48.810;8.954;2023-05-10T04:28:45;2.77;;;1.67;;
2598;SDS011;1309;48.810;8.954;2023-05-10T04:31:13;4.13;;;1.77;;
2598;SDS011;1309;48.810;8.954;2023-05-10T04:33:43;3.23;;;1.80;;
2598;SDS011;1309;48.810;8.954;2023-05-10T04:36:20;3.03;;;1.50;;
2598;SDS011;1309;48.810;8.954;2023-05-10T04:38:53;2.97;;;1.30;;
2598;SDS011;1309;48.810;8.954;2023-05-10T04:41:28;3.30;;;1.73;;
2598;SDS011;1309;48.810;8.954;2023-05-10T04:44:00;2.43;;;1.37;;
2598;SDS011;1309;48.810;8.954;2023-05-10T04:46:28;3.93;;;1.70;;
2598;SDS011;1309;48.810;8.954;2023-05-10T04:48:56;4.70;;;1.67;;
2598;SDS011;1309;48.810;8.954;2023-05-10T04:51:24;3.10;;;1.70;;
2598;SDS011;1309;48.810;8.954;2023-05-10T04:53:53;2.47;;;1.80;;
2598;SDS011;1309;48.810;8.954;2023-05-10T04:56:32;3.17;;;1.50;;
2598;SDS011;1309;48.810;8.954;2023-05-10T04:59:01;2.97;;;1.73;;
2598;SDS011;1309;48.810;8.954;2023-05-10T05:01:30;3.03;;;1.20;;
2598;SDS011;1309;48.810;8.954;2023-05-10T05:04:11;2.97;;;1.90;;
2598;SDS011;1309;48.810;8.954;2023-05-10T05:06:39;3.87;;;1.63;;
2598;SDS011;1309;48.810;8.954;2023-05-10T05:09:07;2.63;;;1.50;;
2598;SDS011;1309;48.810;8.954;2023-05-10T05:11:40;3.40;;;2.00;;
2598;SDS011;1309;48.810;8.954;2023-05-10T05:14:10;2.80;;;1.60;;
2598;SDS011;1309;48.810;8.954;2023-05-10T05:16:39;4.20;;;1.60;;
2598;SDS011;1309;48.810;8.954;2023-05-10T05:19:12;2.77;;;1.70;;
2598;SDS011;1309;48.810;8.954;2023-05-10T05:21:40;3.07;;;1.57;;
2598;SDS011;1309;48.810;8.954;2023-05-10T05:24:10;3.13;;;1.77;;
2598;SDS011;1309;48.810;8.954;2023-05-10T05:26:38;2.10;;;1.10;;
2598;SDS011;1309;48.810;8.954;2023-05-10T05:29:09;2.63;;;1.20;;
2598;SDS011;1309;48.810;8.954;2023-05-10T05:31:40;3.60;;;1.80;;
2598;SDS011;1309;48.810;8.954;2023-05-10T05:34:11;3.23;;;1.67;;
2598;SDS011;1309;48.810;8.954;2023-05-10T05:36:42;5.20;;;1.77;;
2598;SDS011;1309;48.810;8.954;2023-05-10T05:39:10;2.57;;;1.67;;
2598;SDS011;1309;48.810;8.954;2023-05-10T05:41:41;4.07;;;1.40;;
2598;SDS011;1309;48.810;8.954;2023-05-10T05:44:12;4.03;;;2.00;;
2598;SDS011;1309;48.810;8.954;2023-05-10T05:46:40;3.83;;;2.20;;
2598;SDS011;1309;48.810;8.954;2023-05-10T05:49:11;3.50;;;1.80;;
2598;SDS011;1309;48.810;8.954;2023-05-10T05:51:43;3.10;;;1.87;;
2598;SDS011;1309;48.810;8.954;2023-05-10T05:54:19;3.83;;;2.37;;
2598;SDS011;1309;48.810;8.954;2023-05-10T05:56:47;3.27;;;1.83;;
2598;SDS011;1309;48.810;8.954;2023-05-10T05:59:21;4.43;;;2.37;;
2598;SDS011;1309;48.810;8.954;2023-05-10T06:01:50;3.83;;;2.03;;
2598;SDS011;1309;48.810;8.954;2023-05-10T06:04:18;3.87;;;2.20;;
2598;SDS011;1309;48.810;8.954;2023-05-10T06:06:46;5.50;;;3.40;;
2598;SDS011;1309;48.810;8.954;2023-05-10T06:09:18;3.57;;;2.80;;
2598;SDS011;1309;48.810;8.954;2023-05-10T06:11:46;3.30;;;1.80;;
2598;SDS011;1309;48.810;8.954;2023-05-10T06:14:15;3.27;;;1.50;;
2598;SDS011;1309;48.810;8.954;2023-05-10T06:16:49;3.97;;;2.00;;
2598;SDS011;1309;48.810;8.954;2023-05-10T06:19:20;2.90;;;1.83;;
2598;SDS011;1309;48.810;8.954;2023-05-10T06:21:50;2.83;;;1.43;;
2598;SDS011;1309;48.810;8.954;2023-05-10T06:24:19;3.93;;;2.20;;
2598;SDS011;1309;48.810;8.954;2023-05-10T06:26:58;3.00;;;1.80;;
2598;SDS011;1309;48.810;8.954;2023-05-10T06:29:27;3.93;;;2.20;;
2598;SDS011;1309;48.810;8.954;2023-05-10T06:32:00;3.70;;;1.80;;
2598;SDS011;1309;48.810;8.954;2023-05-10T06:34:28;3.70;;;1.83;;
2598;SDS011;1309;48.810;8.954;2023-05-10T06:36:56;4.03;;;1.83;;
2598;SDS011;1309;48.810;8.954;2023-05-10T06:39:31;3.90;;;2.10;;
2598;SDS011;1309;48.810;8.954;2023-05-10T06:42:00;3.90;;;1.80;;
2598;SDS011;1309;48.810;8.954;2023-05-10T06:44:31;2.47;;;1.37;;
2598;SDS011;1309;48.810;8.954;2023-05-10T06:47:07;2.70;;;1.83;;
2598;SDS011;1309;48.810;8.954;2023-05-10T06:49:38;2.70;;;1.50;;
2598;SDS011;1309;48.810;8.954;2023-05-10T06:52:15;2.90;;;1.47;;
2598;SDS011;1309;48.810;8.954;2023-05-10T06:54:46;2.60;;;1.43;;
2598;SDS011;1309;48.810;8.954;2023-05-10T06:57:14;3.00;;;1.70;;
2598;SDS011;1309;48.810;8.954;2023-05-10T06:59:57;2.60;;;1.30;;
2598;SDS011;1309;48.810;8.954;2023-05-10T07:02:27;2.50;;;1.47;;
2598;SDS011;1309;48.810;8.954;2023-05-10T07:04:58;2.50;;;1.30;;
2598;SDS011;1309;48.810;8.954;2023-05-10T07:07:28;3.37;;;1.50;;
2598;SDS011;1309;48.810;8.954;2023-05-10T07:10:04;4.97;;;2.07;;
2598;SDS011;1309;48.810;8.954;2023-05-10T07:12:33;3.17;;;1.70;;
2598;SDS011;1309;48.810;8.954;2023-05-10T07:15:02;2.77;;;1.27;;
2598;SDS011;1309;48.810;8.954;2023-05-10T07:17:34;3.20;;;1.77;;
2598;SDS011;1309;48.810;8.954;2023-05-10T07:20:03;2.43;;;1.37;;
2598;SDS011;1309;48.810;8.954;2023-05-10T07:22:37;3.20;;;1.57;;
2598;SDS011;1309;48.810;8.954;2023-05-10T07:25:07;3.20;;;1.57;;
2598;SDS011;1309;48.810;8.954;2023-05-10T07:27:41;3.67;;;1.73;;
2598;SDS011;1309;48.810;8.954;2023-05-10T07:30:12;2.93;;;1.60;;
2598;SDS011;1309;48.810;8.954;2023-05-10T07:32:44;2.80;;;1.30;;
2598;SDS011;1309;48.810;8.954;2023-05-10T07:35:12;2.77;;;1.17;;
2598;SDS011;1309;48.810;8.954;2023-05-10T07:37:41;3.23;;;1.20;;
2598;SDS011;1309;48.810;8.954;2023-05-10T07:40:09;2.27;;;1.07;;
2598;SDS011;1309;48.810;8.954;2023-05-10T07:42:41;2.10;;;1.10;;
2598;SDS011;1309;48.810;8.954;2023-05-10T07:45:19;2.57;;;1.10;;
2598;SDS011;1309;48.810;8.954;2023-05-10T07:47:49;2.13;;;1.00;;
2598;SDS011;1309;48.810;8.954;2023-05-10T07:50:17;1.90;;;0.77;;
2598;SDS011;1309;48.810;8.954;2023-05-10T07:52:45;2.50;;;0.97;;
2598;SDS011;1309;48.810;8.954;2023-05-10T07:55:15;2.87;;;1.43;;
2598;SDS011;1309;48.810;8.954;2023-05-10T07:57:43;2.57;;;1.37;;
2598;SDS011;1309;48.810;8.954;2023-05-10T08:00:12;3.43;;;1.33;;
2598;SDS011;1309;48.810;8.954;2023-05-10T08:02:40;3.73;;;2.03;;
2598;SDS011;1309;48.810;8.954;2023-05-10T08:05:13;1.90;;;0.90;;
2598;SDS011;1309;48.810;8.954;2023-05-10T08:07:44;1.77;;;0.80;;
2598;SDS011;1309;48.810;8.954;2023-05-10T08:10:13;3.17;;;1.00;;
2598;SDS011;1309;48.810;8.954;2023-05-10T08:12:41;1.83;;;0.73;;
2598;SDS011;1309;48.810;8.954;2023-05-10T08:15:13;1.80;;;0.70;;
2598;SDS011;1309;48.810;8.954;2023-05-10T08:17:47;2.30;;;1.00;;
2598;SDS011;1309;48.810;8.954;2023-05-10T08:20:17;2.00;;;0.80;;
2598;SDS011;1309;48.810;8.954;2023-05-10T08:22:48;2.43;;;0.97;;
2598;SDS011;1309;48.810;8.954;2023-05-10T08:25:18;4.90;;;1.00;;
2598;SDS011;1309;48.810;8.954;2023-05-10T08:27:48;2.40;;;0.80;;
2598;SDS011;1309;48.810;8.954;2023-05-10T08:30:17;2.20;;;0.90;;
2598;SDS011;1309;48.810;8.954;2023-05-10T08:32:47;1.80;;;0.80;;
2598;SDS011;1309;48.810;8.954;2023-05-10T08:35:21;3.90;;;0.93;;
2598;SDS011;1309;48.810;8.954;2023-05-10T08:37:50;2.03;;;0.70;;
2598;SDS011;1309;48.810;8.954;2023-05-10T08:40:19;2.37;;;0.93;;
2598;SDS011;1309;48.810;8.954;2023-05-10T08:42:50;2.37;;;1.00;;
2598;SDS011;1309;48.810;8.954;2023-05-10T08:45:21;2.07;;;0.83;;
2598;SDS011;1309;48.810;8.954;2023-05-10T08:47:53;2.33;;;0.70;;
2598;SDS011;1309;48.810;8.954;2023-05-10T08:50:29;3.13;;;0.80;;
2598;SDS011;1309;48.810;8.954;2023-05-10T08:52:59;1.80;;;0.70;;
2598;SDS011;1309;48.810;8.954;2023-05-10T08:55:29;2.30;;;0.80;;
2598;SDS011;1309;48.810;8.954;2023-05-10T08:58:00;1.90;;;0.70;;
2598;SDS011;1309;48.810;8.954;2023-05-10T09:00:37;2.67;;;0.90;;
2598;SDS011;1309;48.810;8.954;2023-05-10T09:03:07;2.47;;;0.90;;
2598;SDS011;1309;48.810;8.954;2023-05-10T09:05:40;2.20;;;0.73;;
2598;SDS011;1309;48.810;8.954;2023-05-10T09:08:10;2.30;;;0.80;;
2598;SDS011;1309;48.810;8.954;2023-05-10T09:10:39;2.93;;;0.70;;
2598;SDS011;1309;48.810;8.954;2023-05-10T09:13:10;1.70;;;0.70;;
2598;SDS011;1309;48.810;8.954;2023-05-10T09:15:43;3.00;;;0.90;;
2598;SDS011;1309;48.810;8.954;2023-05-10T09:18:15;2.10;;;0.70;;
2598;SDS011;1309;48.810;8.954;2023-05-10T09:20:48;2.63;;;0.90;;
2598;SDS011;1309;48.810;8.954;2023-05-10T09:23:17;3.03;;;1.30;;
2598;SDS011;1309;48.810;8.954;2023-05-10T09:25:45;1.90;;;0.87;;
2598;SDS011;1309;48.810;8.954;2023-05-10T09:28:33;4.10;;;1.00;;
2598;SDS011;1309;48.810;8.954;2023-05-10T09:31:21;2.53;;;0.70;;
2598;SDS011;1309;48.810;8.954;2023-05-10T09:33:53;2.17;;;0.80;;
2598;SDS011;1309;48.810;8.954;2023-05-10T09:36:24;1.80;;;0.70;;
2598;SDS011;1309;48.810;8.954;2023-05-10T09:38:52;3.17;;;0.70;;
2598;SDS011;1309;48.810;8.954;2023-05-10T09:41:22;2.00;;;0.97;;
2598;SDS011;1309;48.810;8.954;2023-05-10T09:43:55;3.73;;;0.80;;
2598;SDS011;1309;48.810;8.954;2023-05-10T09:46:25;1.80;;;0.70;;
2598;SDS011;1309;48.810;8.954;2023-05-10T09:48:53;1.60;;;0.60;;
2598;SDS011;1309;48.810;8.954;2023-05-10T09:51:24;2.00;;;0.90;;
2598;SDS011;1309;48.810;8.954;2023-05-10T09:54:08;1.83;;;0.80;;
2598;SDS011;1309;48.810;8.954;2023-05-10T09:56:51;1.90;;;0.70;;
2598;SDS011;1309;48.810;8.954;2023-05-10T09:59:21;1.73;;;0.70;;
2598;SDS011;1309;48.810;8.954;2023-05-10T10:01:49;2.20;;;1.20;;
2598;SDS011;1309;48.810;8.954;2023-05-10T10:04:19;2.30;;;0.90;;
2598;SDS011;1309;48.810;8.954;2023-05-10T10:07:02;2.60;;;0.70;;
2598;SDS011;1309;48.810;8.954;2023-05-10T10:09:34;2.60;;;1.00;;
2598;SDS011;1309;48.810;8.954;2023-05-10T10:12:06;2.30;;;0.97;;
2598;SDS011;1309;48.810;8.954;2023-05-10T10:14:37;2.20;;;0.80;;
2598;SDS011;1309;48.810;8.954;2023-05-10T10:17:05;2.00;;;0.97;;
2598;SDS011;1309;48.810;8.954;2023-05-10T10:19:37;2.47;;;1.00;;
2598;SDS011;1309;48.810;8.954;2023-05-10T10:22:07;2.00;;;1.00;;
2598;SDS011;1309;48.810;8.954;2023-05-10T10:24:39;2.10;;;0.90;;
2598;SDS011;1309;48.810;8.954;2023-05-10T10:27:15;2.47;;;0.87;;
2598;SDS011;1309;48.810;8.954;2023-05-10T10:29:51;2.37;;;0.80;;
2598;SDS011;1309;48.810;8.954;2023-05-10T10:32:30;8.33;;;1.00;;
2598;SDS011;1309;48.810;8.954;2023-05-10T10:35:04;1.83;;;0.70;;
2598;SDS011;1309;48.810;8.954;2023-05-10T10:37:49;2.47;;;0.90;;
2598;SDS011;1309;48.810;8.954;2023-05-10T10:40:25;2.10;;;0.80;;
2598;SDS011;1309;48.810;8.954;2023-05-10T10:42:58;1.77;;;0.50;;
2598;SDS011;1309;48.810;8.954;2023-05-10T10:48:37;4.40;;;0.77;;
2598;SDS011;1309;48.810;8.954;2023-05-10T10:51:05;2.07;;;0.90;;
2598;SDS011;1309;48.810;8.954;2023-05-10T10:53:44;2.10;;;0.60;;
2598;SDS011;1309;48.810;8.954;2023-05-10T10:56:13;1.60;;;0.50;;
2598;SDS011;1309;48.810;8.954;2023-05-10T10:58:42;2.87;;;0.70;;
2598;SDS011;1309;48.810;8.954;2023-05-10T11:01:20;2.03;;;0.73;;
2598;SDS011;1309;48.810;8.954;2023-05-10T11:04:16;2.40;;;0.87;;
2598;SDS011;1309;48.810;8.954;2023-05-10T11:06:45;1.90;;;0.90;;
2598;SDS011;1309;48.810;8.954;2023-05-10T11:09:14;2.20;;;0.90;;
2598;SDS011;1309;48.810;8.954;2023-05-10T11:11:51;1.80;;;0.80;;
2598;SDS011;1309;48.810;8.954;2023-05-10T11:14:26;2.27;;;0.60;;
2598;SDS011;1309;48.810;8.954;2023-05-10T11:16:59;2.93;;;1.33;;
2598;SDS011;1309;48.810;8.954;2023-05-10T11:19:32;2.20;;;0.60;;
2598;SDS011;1309;48.810;8.954;2023-05-10T11:22:12;3.13;;;0.83;;
2598;SDS011;1309;48.810;8.954;2023-05-10T11:24:42;2.00;;;0.80;;
2598;SDS011;1309;48.810;8.954;2023-05-10T11:27:24;2.10;;;0.83;;
2598;SDS011;1309;48.810;8.954;2023-05-10T11:29:55;1.80;;;0.90;;
2598;SDS011;1309;48.810;8.954;2023-05-10T11:32:25;2.10;;;1.00;;
2598;SDS011;1309;48.810;8.954;2023-05-10T11:34:53;1.80;;;0.93;;
2598;SDS011;1309;48.810;8.954;2023-05-10T11:37:21;2.40;;;1.03;;
2598;SDS011;1309;48.810;8.954;2023-05-10T11:39:51;3.90;;;1.53;;
2598;SDS011;1309;48.810;8.954;2023-05-10T11:42:22;1.90;;;0.90;;
2598;SDS011;1309;48.810;8.954;2023-05-10T11:44:55;2.43;;;1.13;;
2598;SDS011;1309;48.810;8.954;2023-05-10T11:47:25;1.77;;;0.97;;
2598;SDS011;1309;48.810;8.954;2023-05-10T11:49:54;3.07;;;1.07;;
2598;SDS011;1309;48.810;8.954;2023-05-10T11:52:22;2.50;;;1.30;;
2598;SDS011;1309;48.810;8.954;2023-05-10T11:54:54;2.90;;;1.40;;
2598;SDS011;1309;48.810;8.954;2023-05-10T11:57:27;3.67;;;1.13;;
2598;SDS011;1309;48.810;8.954;2023-05-10T11:59:59;2.63;;;1.30;;
2598;SDS011;1309;48.810;8.954;2023-05-10T12:02:29;2.40;;;1.00;;
2598;SDS011;1309;48.810;8.954;2023-05-10T12:04:58;2.10;;;1.07;;
2598;SDS011;1309;48.810;8.954;2023-05-10T12:07:26;4.53;;;1.37;;
2598;SDS011;1309;48.810;8.954;2023-05-10T12:10:06;4.40;;;1.50;;
2598;SDS011;1309;48.810;8.954;2023-05-10T12:12:42;4.60;;;1.50;;
2598;SDS011;1309;48.810;8.954;2023-05-10T12:15:13;2.23;;;1.53;;
2598;SDS011;1309;48.810;8.954;2023-05-10T12:17:46;4.00;;;1.30;;
2598;SDS011;1309;48.810;8.954;2023-05-10T12:20:20;3.17;;;1.43;;
2598;SDS011;1309;48.810;8.954;2023-05-10T12:22:54;1.93;;;0.80;;
2598;SDS011;1309;48.810;8.954;2023-05-10T12:25:31;2.80;;;1.20;;
2598;SDS011;1309;48.810;8.954;2023-05-10T12:28:04;5.20;;;1.37;;
2598;SDS011;1309;48.810;8.954;2023-05-10T12:30:37;2.13;;;1.13;;
2598;SDS011;1309;48.810;8.954;2023-05-10T12:33:09;4.37;;;1.27;;
2598;SDS011;1309;48.810;8.954;2023-05-10T12:35:45;3.43;;;1.27;;
2598;SDS011;1309;48.810;8.954;2023-05-10T12:38:29;2.90;;;1.07;;
2598;SDS011;1309;48.810;8.954;2023-05-10T12:41:01;2.00;;;0.90;;
2598;SDS011;1309;48.810;8.954;2023-05-10T12:43:33;3.13;;;1.20;;
2598;SDS011;1309;48.810;8.954;2023-05-10T12:46:04;4.70;;;1.63;;
2598;SDS011;1309;48.810;8.954;2023-05-10T12:48:38;1.93;;;1.13;;
2598;SDS011;1309;48.810;8.954;2023-05-10T12:51:08;2.33;;;1.20;;
2598;SDS011;1309;48.810;8.954;2023-05-10T12:53:39;2.40;;;1.40;;
2598;SDS011;1309;48.810;8.954;2023-05-10T12:56:12;4.17;;;1.40;;
2598;SDS011;1309;48.810;8.954;2023-05-10T12:58:40;3.70;;;1.90;;
2598;SDS011;1309;48.810;8.954;2023-05-10T13:01:16;4.17;;;1.67;;
2598;SDS011;1309;48.810;8.954;2023-05-10T13:03:44;2.10;;;1.00;;
2598;SDS011;1309;48.810;8.954;2023-05-10T13:06:17;2.60;;;1.33;;
2598;SDS011;1309;48.810;8.954;2023-05-10T13:08:45;2.00;;;1.10;;
2598;SDS011;1309;48.810;8.954;2023-05-10T13:11:16;2.70;;;1.13;;
2598;SDS011;1309;48.810;8.954;2023-05-10T13:13:47;2.30;;;1.10;;
2598;SDS011;1309;48.810;8.954;2023-05-10T13:16:21;2.70;;;1.73;;
2598;SDS011;1309;48.810;8.954;2023-05-10T13:18:50;3.47;;;1.60;;
2598;SDS011;1309;48.810;8.954;2023-05-10T13:21:20;3.43;;;1.47;;
2598;SDS011;1309;48.810;8.954;2023-05-10T13:23:52;2.60;;;1.13;;
2598;SDS011;1309;48.810;8.954;2023-05-10T13:26:23;2.40;;;1.20;;
2598;SDS011;1309;48.810;8.954;2023-05-10T13:28:54;1.97;;;1.00;;
2598;SDS011;1309;48.810;8.954;2023-05-10T13:31:23;2.87;;;1.10;;
2598;SDS011;1309;48.810;8.954;2023-05-10T13:33:54;2.53;;;1.00;;
2598;SDS011;1309;48.810;8.954;2023-05-10T13:36:24;4.57;;;1.00;;
2598;SDS011;1309;48.810;8.954;2023-05-10T13:39:04;2.70;;;1.20;;
2598;SDS011;1309;48.810;8.954;2023-05-10T13:41:35;2.93;;;1.13;;
2598;SDS011;1309;48.810;8.954;2023-05-10T13:44:09;2.60;;;1.00;;
2598;SDS011;1309;48.810;8.954;2023-05-10T13:46:40;4.50;;;1.00;;
2598;SDS011;1309;48.810;8.954;2023-05-10T13:49:13;3.00;;;1.20;;
2598;SDS011;1309;48.810;8.954;2023-05-10T13:51:48;2.43;;;1.03;;
2598;SDS011;1309;48.810;8.954;2023-05-10T13:54:17;2.20;;;1.10;;
2598;SDS011;1309;48.810;8.954;2023-05-10T13:56:50;2.60;;;1.20;;
2598;SDS011;1309;48.810;8.954;2023-05-10T13:59:18;2.53;;;1.23;;
2598;SDS011;1309;48.810;8.954;2023-05-10T14:01:49;2.43;;;0.90;;
2598;SDS011;1309;48.810;8.954;2023-05-10T14:04:21;3.47;;;1.17;;
2598;SDS011;1309;48.810;8.954;2023-05-10T14:06:59;4.40;;;1.30;;
2598;SDS011;1309;48.810;8.954;2023-05-10T14:09:27;2.60;;;0.93;;
2598;SDS011;1309;48.810;8.954;2023-05-10T14:12:00;2.37;;;1.20;;
2598;SDS011;1309;48.810;8.954;2023-05-10T14:14:29;2.20;;;1.07;;
2598;SDS011;1309;48.810;8.954;2023-05-10T14:17:02;3.13;;;1.40;;
2598;SDS011;1309;48.810;8.954;2023-05-10T14:19:37;3.00;;;1.60;;
2598;SDS011;1309;48.810;8.954;2023-05-10T14:22:09;4.33;;;1.70;;
2598;SDS011;1309;48.810;8.954;2023-05-10T14:24:38;4.83;;;1.47;;
2598;SDS011;1309;48.810;8.954;2023-05-10T14:27:09;3.30;;;1.40;;
2598;SDS011;1309;48.810;8.954;2023-05-10T14:29:37;2.60;;;1.00;;
2598;SDS011;1309;48.810;8.954;2023-05-10T14:32:05;2.37;;;1.10;;
2598;SDS011;1309;48.810;8.954;2023-05-10T14:34:36;2.00;;;0.80;;
2598;SDS011;1309;48.810;8.954;2023-05-10T14:37:05;3.07;;;1.67;;
2598;SDS011;1309;48.810;8.954;2023-05-10T14:39:36;5.87;;;1.43;;
2598;SDS011;1309;48.810;8.954;2023-05-10T14:42:04;3.13;;;1.40;;
2598;SDS011;1309;48.810;8.954;2023-05-10T14:44:34;2.60;;;1.27;;
2598;SDS011;1309;48.810;8.954;2023-05-10T14:47:02;2.50;;;1.13;;
2598;SDS011;1309;48.810;8.954;2023-05-10T14:49:31;2.30;;;1.00;;
2598;SDS011;1309;48.810;8.954;2023-05-10T14:52:03;3.30;;;1.20;;
2598;SDS011;1309;48.810;8.954;2023-05-10T14:54:31;2.10;;;0.90;;
2598;SDS011;1309;48.810;8.954;2023-05-10T14:57:00;2.73;;;0.87;;
2598;SDS011;1309;48.810;8.954;2023-05-10T14:59:29;3.87;;;1.20;;
2598;SDS011;1309;48.810;8.954;2023-05-10T15:01:59;2.93;;;0.97;;
2598;SDS011;1309;48.810;8.954;2023-05-10T15:04:30;3.77;;;1.00;;
2598;SDS011;1309;48.810;8.954;2023-05-10T15:07:00;3.23;;;0.90;;
2598;SDS011;1309;48.810;8.954;2023-05-10T15:09:31;2.73;;;0.90;;
2598;SDS011;1309;48.810;8.954;2023-05-10T15:11:59;3.03;;;1.33;;
2598;SDS011;1309;48.810;8.954;2023-05-10T15:14:27;2.50;;;0.93;;
2598;SDS011;1309;48.810;8.954;2023-05-10T15:16:56;2.90;;;1.17;;
2598;SDS011;1309;48.810;8.954;2023-05-10T15:19:35;3.30;;;1.47;;
2598;SDS011;1309;48.810;8.954;2023-05-10T15:22:03;2.93;;;0.83;;
2598;SDS011;1309;48.810;8.954;2023-05-10T15:24:31;4.20;;;1.10;;
2598;SDS011;1309;48.810;8.954;2023-05-10T15:27:01;2.00;;;1.00;;
2598;SDS011;1309;48.810;8.954;2023-05-10T15:29:29;1.80;;;0.63;;
2598;SDS011;1309;48.810;8.954;2023-05-10T15:31:58;2.10;;;1.10;;
2598;SDS011;1309;48.810;8.954;2023-05-10T15:34:29;2.80;;;0.90;;
2598;SDS011;1309;48.810;8.954;2023-05-10T15:37:02;2.20;;;1.00;;
2598;SDS011;1309;48.810;8.954;2023-05-10T15:39:32;2.10;;;0.83;;
2598;SDS011;1309;48.810;8.954;2023-05-10T15:42:00;3.27;;;1.07;;
2598;SDS011;1309;48.810;8.954;2023-05-10T15:44:30;2.33;;;0.80;;
2598;SDS011;1309;48.810;8.954;2023-05-10T15:47:03;5.60;;;2.40;;
2598;SDS011;1309;48.810;8.954;2023-05-10T15:49:34;4.73;;;0.90;;
2598;SDS011;1309;48.810;8.954;2023-05-10T15:52:07;1.90;;;0.80;;